createdAt,value
2023-03-26T00:01:30.171Z,1.63
2023-03-26T00:03:57.993Z,2.03
2023-03-26T00:06:28.785Z,1.42
2023-03-26T00:08:57.715Z,1.23
2023-03-26T00:11:27.356Z,1.95
2023-03-26T00:13:57.023Z,1.15
2023-03-26T00:16:26.430Z,1.75
2023-03-26T00:18:53.888Z,1.92
2023-03-26T00:21:28.213Z,2.22
2023-03-26T00:23:58.601Z,2.03
2023-03-26T00:26:26.684Z,1.73
2023-03-26T00:28:54.596Z,1.55
2023-03-26T00:31:21.588Z,2.47
2023-03-26T00:33:51.335Z,1.90
2023-03-26T00:36:20.015Z,1.60
2023-03-26T00:38:47.958Z,1.33
2023-03-26T00:41:25.055Z,1.63
2023-03-26T00:43:56.192Z,1.50
2023-03-26T00:46:25.247Z,1.77
2023-03-26T00:48:52.192Z,1.60
2023-03-26T00:51:20.985Z,1.65
2023-03-26T00:53:49.346Z,1.40
2023-03-26T00:56:16.830Z,1.60
2023-03-26T00:58:44.443Z,1.60
2023-03-26T01:01:14.027Z,1.63
2023-03-26T01:03:53.191Z,1.52
2023-03-26T01:06:34.024Z,1.75
2023-03-26T01:09:12.687Z,2.03
2023-03-26T01:11:39.898Z,1.35
2023-03-26T01:14:10.924Z,1.90
2023-03-26T01:16:45.120Z,1.80
2023-03-26T01:19:23.876Z,1.67
2023-03-26T01:21:50.628Z,2.30
2023-03-26T01:24:17.588Z,2.92
2023-03-26T01:26:50.277Z,2.63
2023-03-26T01:29:29.710Z,2.88
2023-03-26T01:32:20.752Z,2.45
2023-03-26T01:35:07.029Z,2.90
2023-03-26T01:37:58.779Z,2.38
2023-03-26T01:40:43.932Z,2.63
2023-03-26T01:43:29.038Z,2.70
2023-03-26T01:45:59.409Z,2.90
2023-03-26T01:48:36.882Z,2.35
2023-03-26T01:51:05.032Z,2.60
2023-03-26T01:53:34.967Z,2.13
2023-03-26T01:56:12.938Z,2.13
2023-03-26T01:59:01.402Z,1.88
2023-03-26T02:01:44.762Z,2.13
2023-03-26T02:04:53.429Z,1.55
2023-03-26T02:07:39.322Z,1.83
2023-03-26T02:10:16.209Z,2.10
2023-03-26T02:12:44.462Z,1.90
2023-03-26T02:15:12.561Z,1.75
2023-03-26T02:17:40.391Z,1.90
2023-03-26T02:20:15.911Z,2.30
2023-03-26T02:22:46.012Z,1.98
2023-03-26T02:25:18.882Z,2.17
2023-03-26T02:27:46.864Z,2.67
2023-03-26T02:30:20.109Z,2.17
2023-03-26T02:32:47.709Z,2.38
2023-03-26T02:35:14.734Z,2.42
2023-03-26T02:37:42.200Z,2.78
2023-03-26T02:40:11.660Z,2.63
2023-03-26T02:42:39.034Z,2.50
2023-03-26T02:45:06.763Z,3.15
2023-03-26T02:47:33.856Z,2.83
2023-03-26T02:50:01.677Z,2.63
2023-03-26T02:52:28.418Z,2.78
2023-03-26T02:54:55.402Z,2.75
2023-03-26T02:57:23.366Z,2.42
2023-03-26T02:59:50.398Z,2.72
2023-03-26T03:02:18.290Z,2.60
2023-03-26T03:04:45.285Z,2.22
2023-03-26T03:07:15.124Z,2.70
2023-03-26T03:09:42.072Z,2.30
2023-03-26T03:12:08.824Z,2.55
2023-03-26T03:14:35.750Z,2.58
2023-03-26T03:17:02.587Z,2.72
2023-03-26T03:19:29.394Z,2.60
2023-03-26T03:21:56.257Z,2.40
2023-03-26T03:24:23.519Z,2.42
2023-03-26T03:26:54.956Z,2.20
2023-03-26T03:29:21.745Z,1.92
2023-03-26T03:31:48.505Z,2.22
2023-03-26T03:34:15.380Z,1.88
2023-03-26T03:36:42.044Z,2.05
2023-03-26T03:39:08.925Z,1.60
2023-03-26T03:41:35.686Z,2.50
2023-03-26T03:44:02.607Z,2.45
2023-03-26T03:46:29.412Z,1.67
2023-03-26T03:48:56.218Z,1.70
2023-03-26T03:51:23.368Z,1.58
2023-03-26T03:53:50.516Z,1.73
2023-03-26T03:56:19.375Z,2.15
2023-03-26T03:58:47.412Z,1.30
2023-03-26T04:01:16.833Z,1.48
2023-03-26T04:03:46.539Z,1.30
2023-03-26T04:06:13.907Z,1.30
2023-03-26T04:08:40.861Z,1.25
2023-03-26T04:11:07.545Z,0.93
2023-03-26T04:13:34.432Z,0.57
2023-03-26T04:16:01.278Z,0.88
2023-03-26T04:18:30.243Z,0.77
2023-03-26T04:20:57.162Z,0.60
2023-03-26T04:23:24.391Z,0.70
2023-03-26T04:25:55.025Z,0.60
2023-03-26T04:28:35.659Z,0.60
2023-03-26T04:31:06.247Z,0.85
2023-03-26T04:33:34.787Z,1.00
2023-03-26T04:36:03.203Z,0.93
2023-03-26T04:38:33.511Z,0.88
2023-03-26T04:41:03.993Z,0.82
2023-03-26T04:43:31.625Z,1.00
2023-03-26T04:45:58.424Z,1.00
2023-03-26T04:48:25.773Z,1.20
2023-03-26T04:50:52.862Z,0.90
2023-03-26T04:53:21.367Z,0.98
2023-03-26T04:55:57.359Z,0.65
2023-03-26T04:58:30.202Z,1.10
2023-03-26T05:00:57.505Z,0.35
2023-03-26T05:03:25.660Z,0.50
2023-03-26T05:05:52.959Z,0.45
2023-03-26T05:08:19.784Z,0.40
2023-03-26T05:10:46.601Z,0.50
2023-03-26T05:13:13.351Z,0.52
2023-03-26T05:15:40.413Z,0.40
2023-03-26T05:18:08.858Z,0.40
2023-03-26T05:20:36.000Z,0.30
2023-03-26T05:23:02.889Z,0.50
2023-03-26T05:25:30.207Z,0.17
2023-03-26T05:27:57.022Z,0.40
2023-03-26T05:30:23.801Z,0.40
2023-03-26T05:32:51.921Z,0.40
2023-03-26T05:35:19.517Z,0.22
2023-03-26T05:37:47.998Z,0.30
2023-03-26T05:40:17.018Z,0.38
2023-03-26T05:42:44.812Z,0.77
2023-03-26T05:45:12.818Z,0.52
2023-03-26T05:47:39.750Z,0.43
2023-03-26T05:50:07.530Z,1.10
2023-03-26T05:52:34.665Z,0.70
2023-03-26T05:55:01.867Z,0.63
2023-03-26T05:57:32.359Z,0.60
2023-03-26T05:59:59.156Z,0.52
2023-03-26T06:02:26.078Z,0.85
2023-03-26T06:04:52.937Z,0.70
2023-03-26T06:07:20.083Z,0.65
2023-03-26T06:09:47.135Z,0.85
2023-03-26T06:12:14.820Z,0.57
2023-03-26T06:14:44.996Z,1.02
2023-03-26T06:17:12.062Z,1.23
2023-03-26T06:19:38.873Z,1.13
2023-03-26T06:22:05.953Z,1.65
2023-03-26T06:24:34.420Z,0.93
2023-03-26T06:27:01.132Z,1.13
2023-03-26T06:29:27.967Z,0.68
2023-03-26T06:31:54.985Z,0.85
2023-03-26T06:34:22.125Z,0.60
2023-03-26T06:36:49.141Z,0.88
2023-03-26T06:39:16.394Z,1.67
2023-03-26T06:41:43.107Z,1.52
2023-03-26T06:44:11.176Z,1.30
2023-03-26T06:46:39.048Z,0.70
2023-03-26T06:49:06.057Z,0.73
2023-03-26T06:51:32.873Z,0.60
2023-03-26T06:53:59.694Z,0.77
2023-03-26T06:56:26.604Z,1.23
2023-03-26T06:58:53.237Z,1.15
2023-03-26T07:01:20.096Z,0.80
2023-03-26T07:03:47.014Z,1.20
2023-03-26T07:06:13.832Z,0.88
2023-03-26T07:08:40.891Z,1.08
2023-03-26T07:11:07.788Z,1.20
2023-03-26T07:13:34.721Z,0.82
2023-03-26T07:16:01.561Z,1.17
2023-03-26T07:18:28.325Z,1.65
2023-03-26T07:20:55.495Z,1.08
2023-03-26T07:23:22.738Z,1.15
2023-03-26T07:25:49.941Z,1.60
2023-03-26T07:28:34.744Z,0.90
2023-03-26T07:31:18.399Z,0.90
2023-03-26T07:34:23.775Z,1.50
2023-03-26T07:37:33.980Z,1.02
2023-03-26T07:40:50.645Z,0.93
2023-03-26T07:43:28.248Z,1.40
2023-03-26T07:45:56.349Z,1.00
2023-03-26T07:48:31.506Z,0.88
2023-03-26T07:51:00.050Z,0.98
2023-03-26T07:53:26.903Z,0.98
2023-03-26T07:55:59.668Z,1.92
2023-03-26T07:58:48.173Z,1.05
2023-03-26T08:01:23.890Z,0.93
2023-03-26T08:04:23.747Z,1.35
2023-03-26T08:07:03.385Z,1.25
2023-03-26T08:10:08.286Z,1.25
2023-03-26T08:12:41.185Z,1.85
2023-03-26T08:15:33.968Z,1.75
2023-03-26T08:18:38.834Z,1.40
2023-03-26T08:21:31.765Z,1.63
2023-03-26T08:24:01.393Z,1.60
2023-03-26T08:26:51.739Z,1.55
2023-03-26T08:29:22.806Z,1.42
2023-03-26T08:31:50.462Z,1.70
2023-03-26T08:34:17.291Z,1.50
2023-03-26T08:36:43.992Z,1.40
2023-03-26T08:39:10.796Z,1.70
2023-03-26T08:42:25.774Z,2.00
2023-03-26T08:45:29.552Z,1.27
2023-03-26T08:48:14.818Z,1.15
2023-03-26T08:50:58.244Z,1.70
2023-03-26T08:53:39.016Z,1.23
2023-03-26T08:56:18.169Z,1.30
2023-03-26T08:59:09.137Z,1.98
2023-03-26T09:01:54.149Z,1.85
2023-03-26T09:04:29.790Z,1.55
2023-03-26T09:07:27.727Z,1.55
2023-03-26T09:10:32.032Z,1.63
2023-03-26T09:13:32.888Z,1.23
2023-03-26T09:16:15.253Z,1.48
2023-03-26T09:19:05.028Z,2.08
2023-03-26T09:21:57.225Z,1.42
2023-03-26T09:24:32.986Z,1.73
2023-03-26T09:27:16.319Z,1.83
2023-03-26T09:30:01.420Z,1.90
2023-03-26T09:32:57.276Z,1.73
2023-03-26T09:35:52.696Z,1.40
2023-03-26T09:38:55.092Z,1.92
2023-03-26T09:41:41.457Z,1.13
2023-03-26T09:44:37.868Z,1.10
2023-03-26T09:47:29.804Z,1.60
2023-03-26T09:50:30.460Z,1.75
2023-03-26T09:53:18.371Z,1.65
2023-03-26T09:56:08.490Z,1.50
2023-03-26T09:59:09.126Z,1.23
2023-03-26T10:01:44.974Z,1.63
2023-03-26T10:04:36.009Z,1.40
2023-03-26T10:07:30.198Z,1.83
2023-03-26T10:10:19.613Z,1.85
2023-03-26T10:12:55.969Z,1.50
2023-03-26T10:15:36.577Z,1.48
2023-03-26T10:18:27.804Z,2.30
2023-03-26T10:21:12.050Z,1.15
2023-03-26T10:24:16.616Z,1.48
2023-03-26T10:27:13.716Z,1.92
2023-03-26T10:29:59.202Z,1.30
2023-03-26T10:32:34.085Z,1.52
2023-03-26T10:35:37.084Z,1.52
2023-03-26T10:38:29.486Z,1.38
2023-03-26T10:41:38.205Z,1.50
2023-03-26T10:44:13.923Z,1.85
2023-03-26T10:47:10.901Z,1.40
2023-03-26T10:50:23.098Z,1.52
2023-03-26T10:52:56.368Z,1.50
2023-03-26T10:55:33.649Z,1.05
2023-03-26T10:58:24.157Z,1.83
2023-03-26T11:01:13.642Z,1.40
2023-03-26T11:03:52.186Z,1.35
2023-03-26T11:06:26.604Z,1.33
2023-03-26T11:09:22.706Z,1.80
2023-03-26T11:11:57.467Z,1.50
2023-03-26T11:14:34.855Z,1.50
2023-03-26T11:17:40.883Z,1.88
2023-03-26T11:20:24.248Z,1.50
2023-03-26T11:23:03.060Z,1.25
2023-03-26T11:25:38.707Z,1.95
2023-03-26T11:28:17.380Z,1.65
2023-03-26T11:31:09.940Z,1.73
2023-03-26T11:33:47.766Z,1.45
2023-03-26T11:36:29.105Z,1.10
2023-03-26T11:38:59.659Z,1.92
2023-03-26T11:41:28.627Z,1.08
2023-03-26T11:44:11.345Z,1.42
2023-03-26T11:46:42.462Z,2.08
2023-03-26T11:49:13.236Z,1.33
2023-03-26T11:51:42.958Z,2.05
2023-03-26T11:54:12.789Z,1.90
2023-03-26T11:57:05.595Z,1.42
2023-03-26T11:59:56.538Z,1.23
2023-03-26T12:02:34.060Z,1.23
2023-03-26T12:05:12.017Z,1.50
2023-03-26T12:10:37.630Z,1.70
2023-03-26T12:13:50.706Z,1.17
2023-03-26T12:16:20.067Z,1.25
2023-03-26T12:18:59.381Z,1.45
2023-03-26T12:21:27.006Z,1.42
2023-03-26T12:24:01.839Z,2.22
2023-03-26T12:26:44.958Z,1.30
2023-03-26T12:29:17.998Z,1.35
2023-03-26T12:31:56.483Z,1.58
2023-03-26T12:34:31.672Z,1.30
2023-03-26T12:37:01.788Z,1.30
2023-03-26T12:40:09.321Z,1.15
2023-03-26T12:44:46.127Z,0.85
2023-03-26T12:45:14.461Z,1.35
2023-03-26T12:47:57.980Z,1.50
2023-03-26T12:50:38.535Z,1.23
2023-03-26T12:53:08.313Z,1.73
2023-03-26T12:55:36.742Z,1.23
2023-03-26T12:58:22.253Z,1.30
2023-03-26T13:00:55.399Z,1.00
2023-03-26T13:03:38.286Z,1.00
2023-03-26T13:06:14.073Z,1.30
2023-03-26T13:09:01.131Z,1.33
2023-03-26T13:11:55.029Z,1.38
2023-03-26T13:14:44.989Z,1.15
2023-03-26T13:17:30.960Z,1.23
2023-03-26T13:20:24.935Z,1.80
2023-03-26T13:23:16.337Z,1.85
2023-03-26T13:26:01.344Z,1.00
2023-03-26T13:28:43.066Z,1.27
2023-03-26T13:31:29.131Z,2.05
2023-03-26T13:34:36.330Z,1.90
2023-03-26T13:37:18.363Z,1.13
2023-03-26T13:40:25.777Z,1.10
2023-03-26T13:43:07.724Z,1.50
2023-03-26T13:45:54.037Z,1.45
2023-03-26T13:48:28.620Z,1.10
2023-03-26T13:51:22.283Z,1.00
2023-03-26T13:54:13.643Z,1.50
2023-03-26T13:56:46.408Z,1.23
2023-03-26T13:59:21.519Z,1.90
2023-03-26T14:01:55.349Z,1.17
2023-03-26T14:04:33.524Z,1.20
2023-03-26T14:07:23.409Z,1.20
2023-03-26T14:09:59.237Z,0.95
2023-03-26T14:12:44.654Z,1.35
2023-03-26T14:15:16.359Z,1.38
2023-03-26T14:17:55.610Z,0.95
2023-03-26T14:20:44.649Z,0.93
2023-03-26T14:23:39.528Z,1.75
2023-03-26T14:26:31.474Z,1.38
2023-03-26T14:29:34.359Z,1.45
2023-03-26T14:32:32.080Z,1.13
2023-03-26T14:35:09.562Z,1.73
2023-03-26T14:38:14.402Z,1.58
2023-03-26T14:40:58.162Z,0.90
2023-03-26T14:44:11.319Z,1.52
2023-03-26T14:47:20.057Z,1.00
2023-03-26T14:50:21.601Z,0.68
2023-03-26T14:53:01.318Z,1.48
2023-03-26T14:55:48.593Z,1.05
2023-03-26T14:58:44.114Z,1.23
2023-03-26T15:01:46.945Z,0.95
2023-03-26T15:06:52.792Z,0.60
2023-03-26T15:09:25.886Z,0.93
2023-03-26T15:12:34.309Z,0.52
2023-03-26T15:15:11.081Z,0.77
2023-03-26T15:18:09.131Z,0.73
2023-03-26T15:21:06.924Z,0.60
2023-03-26T15:23:42.891Z,0.85
2023-03-26T15:26:37.133Z,0.82
2023-03-26T15:29:16.062Z,0.65
2023-03-26T15:31:57.719Z,0.95
2023-03-26T15:35:00.139Z,0.57
2023-03-26T15:37:42.083Z,0.43
2023-03-26T15:40:30.512Z,0.50
2023-03-26T15:43:32.357Z,0.70
2023-03-26T15:46:29.149Z,0.55
2023-03-26T15:51:59.166Z,0.50
2023-03-26T15:54:30.523Z,0.60
2023-03-26T15:57:26.087Z,0.40
2023-03-26T15:59:59.310Z,0.70
2023-03-26T16:03:00.595Z,0.40
2023-03-26T16:05:46.145Z,0.68
2023-03-26T16:08:53.287Z,0.60
2023-03-26T16:11:59.359Z,0.40
2023-03-26T16:14:35.152Z,0.30
2023-03-26T16:17:08.156Z,0.40
2023-03-26T16:19:49.740Z,0.50
2023-03-26T16:22:45.609Z,0.43
2023-03-26T16:25:31.490Z,0.50
2023-03-26T16:28:10.467Z,0.98
2023-03-26T16:30:38.065Z,0.47
2023-03-26T16:33:12.533Z,1.00
2023-03-26T16:36:06.506Z,0.30
2023-03-26T16:38:59.267Z,0.43
2023-03-26T16:41:31.830Z,0.40
2023-03-26T16:44:16.994Z,0.68
2023-03-26T16:46:59.167Z,0.52
2023-03-26T16:50:08.901Z,0.40
2023-03-26T16:52:46.994Z,0.30
2023-03-26T16:55:35.322Z,0.57
2023-03-26T16:58:09.524Z,0.57
2023-03-26T17:01:16.636Z,0.73
2023-03-26T17:03:54.594Z,0.80
2023-03-26T17:06:32.083Z,0.68
2023-03-26T17:09:07.817Z,0.32
2023-03-26T17:12:02.671Z,0.32
2023-03-26T17:14:29.411Z,0.73
2023-03-26T17:17:02.583Z,0.52
2023-03-26T17:19:32.750Z,0.70
2023-03-26T17:22:16.630Z,0.50
2023-03-26T17:24:57.140Z,0.43
2023-03-26T17:27:50.096Z,0.50
2023-03-26T17:30:45.787Z,0.32
2023-03-26T17:33:20.037Z,0.50
2023-03-26T17:35:48.807Z,0.32
2023-03-26T17:38:15.593Z,0.30
2023-03-26T17:40:58.674Z,0.40
2023-03-26T17:43:46.563Z,0.50
2023-03-26T17:46:13.688Z,0.40
2023-03-26T17:48:47.097Z,0.30
2023-03-26T17:51:32.041Z,0.50
2023-03-26T17:54:00.176Z,0.63
2023-03-26T17:56:29.779Z,0.38
2023-03-26T17:59:11.521Z,0.52
2023-03-26T18:01:44.300Z,0.30
2023-03-26T18:04:21.209Z,0.38
2023-03-26T18:07:04.083Z,0.50
2023-03-26T18:10:09.411Z,0.77
2023-03-26T18:12:48.391Z,0.43
2023-03-26T18:15:20.201Z,0.52
2023-03-26T18:17:48.028Z,0.47
2023-03-26T18:20:24.373Z,1.23
2023-03-26T18:22:52.566Z,1.23
2023-03-26T18:25:34.081Z,0.70
2023-03-26T18:28:02.361Z,0.40
2023-03-26T18:30:29.845Z,0.40
2023-03-26T18:33:04.018Z,0.50
2023-03-26T18:35:46.186Z,0.40
2023-03-26T18:38:19.305Z,0.40
2023-03-26T18:41:05.909Z,0.70
2023-03-26T18:43:35.622Z,0.43
2023-03-26T18:46:13.824Z,0.50
2023-03-26T18:48:41.528Z,1.00
2023-03-26T18:51:10.219Z,1.05
2023-03-26T18:54:04.712Z,0.70
2023-03-26T18:56:40.576Z,0.85
2023-03-26T18:59:30.783Z,0.52
2023-03-26T19:02:05.469Z,0.50
2023-03-26T19:04:34.852Z,0.55
2023-03-26T19:07:04.665Z,0.55
2023-03-26T19:09:32.707Z,0.40
2023-03-26T19:12:14.388Z,0.55
2023-03-26T19:15:11.121Z,0.65
2023-03-26T19:17:56.674Z,0.80
2023-03-26T19:20:28.916Z,0.50
2023-03-26T19:22:56.990Z,0.85
2023-03-26T19:25:28.721Z,0.68
2023-03-26T19:27:56.054Z,0.60
2023-03-26T19:30:31.741Z,0.68
2023-03-26T19:33:13.894Z,0.63
2023-03-26T19:35:42.840Z,0.73
2023-03-26T19:38:24.841Z,1.90
2023-03-26T19:40:54.833Z,2.70
2023-03-26T19:43:23.082Z,2.58
2023-03-26T19:45:59.893Z,1.73
2023-03-26T19:48:45.774Z,1.13
2023-03-26T19:51:21.093Z,1.08
2023-03-26T19:53:54.289Z,1.45
2023-03-26T19:56:22.156Z,1.10
2023-03-26T19:58:50.157Z,1.20
2023-03-26T20:01:26.736Z,1.05
2023-03-26T20:04:01.021Z,1.50
2023-03-26T20:06:42.278Z,1.33
2023-03-26T20:09:12.877Z,2.00
2023-03-26T20:11:40.753Z,0.95
2023-03-26T20:14:24.521Z,0.57
2023-03-26T20:16:52.115Z,0.80
2023-03-26T20:19:19.209Z,0.43
2023-03-26T20:21:46.136Z,0.40
2023-03-26T20:24:17.750Z,0.43
2023-03-26T20:26:45.810Z,0.30
2023-03-26T20:29:14.018Z,0.45
2023-03-26T20:31:41.711Z,0.80
2023-03-26T20:34:22.105Z,0.32
2023-03-26T20:36:55.127Z,0.45
2023-03-26T20:39:23.467Z,0.43
2023-03-26T20:41:53.713Z,0.50
2023-03-26T20:44:21.929Z,0.55
2023-03-26T20:46:49.936Z,0.60
2023-03-26T20:49:18.464Z,0.55
2023-03-26T20:51:46.610Z,0.63
2023-03-26T20:54:17.638Z,0.60
2023-03-26T20:56:45.686Z,0.63
2023-03-26T20:59:18.071Z,1.02
2023-03-26T21:01:47.509Z,1.25
2023-03-26T21:04:16.090Z,0.60
2023-03-26T21:06:43.950Z,0.52
2023-03-26T21:09:17.627Z,1.38
2023-03-26T21:12:08.107Z,0.60
2023-03-26T21:14:44.218Z,0.57
2023-03-26T21:17:22.173Z,0.60
2023-03-26T21:19:49.696Z,0.63
2023-03-26T21:22:43.325Z,1.02
2023-03-26T21:25:32.302Z,0.80
2023-03-26T21:28:28.943Z,0.40
2023-03-26T21:33:31.108Z,0.50
2023-03-26T21:36:00.013Z,0.52
2023-03-26T21:38:27.561Z,0.60
2023-03-26T21:40:58.851Z,0.70
2023-03-26T21:43:26.097Z,0.52
2023-03-26T21:45:57.457Z,0.63
2023-03-26T21:48:24.669Z,0.55
2023-03-26T21:50:51.931Z,0.60
2023-03-26T21:53:19.061Z,0.40
2023-03-26T21:56:21.448Z,0.40
2023-03-26T21:58:59.188Z,0.20
2023-03-26T22:01:48.897Z,1.02
2023-03-26T22:04:36.154Z,0.38
2023-03-26T22:07:17.756Z,0.52
2023-03-26T22:09:44.955Z,0.30
2023-03-26T22:12:12.117Z,0.40
2023-03-26T22:14:39.342Z,0.70
2023-03-26T22:17:06.795Z,0.57
2023-03-26T22:19:34.594Z,0.60
2023-03-26T22:22:02.154Z,0.30
2023-03-26T22:24:28.980Z,0.40
2023-03-26T22:26:56.055Z,0.60
2023-03-26T22:29:22.895Z,0.68
2023-03-26T22:31:49.606Z,0.60
2023-03-26T22:34:16.665Z,0.60
2023-03-26T22:36:43.466Z,0.50
2023-03-26T22:39:10.185Z,0.32
2023-03-26T22:41:37.143Z,0.40
2023-03-26T22:44:16.841Z,0.30
2023-03-26T22:46:49.236Z,0.65
2023-03-26T22:49:16.745Z,0.47
2023-03-26T22:51:43.765Z,0.50
2023-03-26T22:54:10.637Z,0.40
2023-03-26T22:56:37.681Z,0.63
2023-03-26T22:59:04.675Z,0.43
2023-03-26T23:01:31.562Z,0.30
2023-03-26T23:03:58.639Z,0.57
2023-03-26T23:06:25.615Z,0.50
2023-03-26T23:08:52.461Z,0.32
2023-03-26T23:11:22.009Z,0.43
2023-03-26T23:13:49.320Z,0.47
2023-03-26T23:16:17.371Z,0.38
2023-03-26T23:18:44.605Z,0.40
2023-03-26T23:21:18.461Z,0.43
2023-03-26T23:23:46.206Z,0.35
2023-03-26T23:26:14.426Z,0.50
2023-03-26T23:28:42.340Z,0.45
2023-03-26T23:31:12.090Z,0.47
2023-03-26T23:33:46.606Z,0.47
2023-03-26T23:36:18.702Z,0.50
2023-03-26T23:38:47.610Z,0.60
2023-03-26T23:41:16.127Z,0.50
2023-03-26T23:43:53.385Z,0.63
2023-03-26T23:46:24.016Z,0.30
2023-03-26T23:48:52.525Z,0.52
2023-03-26T23:51:20.437Z,0.40
2023-03-26T23:53:49.185Z,0.50
2023-03-26T23:56:16.622Z,0.60
2023-03-26T23:58:43.449Z,0.50
